Terminal Aerodrome Forecast
Issued by NWS Mt. Holly, NJ

Home | Current Version | Previous Version | Text Only | Print | Product List | Glossary On
Versions: 1 2 3 4 5 6 7 8 9 10 11 12 13 14 15 16 17 18 19 20 21 22 23 24
000
FTUS41 KPHI 231145
TAFRDG
TAF
KRDG 231145Z 2312/2412 12005KT P6SM VCSH OVC008
     FM231500 11007KT 3SM -RA BR OVC008
     FM232200 12005KT 2SM -DZ BR OVC008
     FM240200 VRB02KT 5SM BR OVC005
     FM240800 27004KT 6SM BR BKN008 BKN100=

USA.gov is the U.S. government's official web portal to all federal, state and local government web resources and services.